Time;durP1;ratioP1;P1;durP2;ratioP2;P2;SDS_P1;SDS_P2;PMS_P1;PMS_P2;Temp;Humidity;BMP_temperature;BMP_pressure;BME280_temperature;BME280_humidity;BME280_pressure;Samples;Min_cycle;Max_cycle;Signal;HPM_P1;HPM_P2
2021/12/24 00:00:06;;;;;;;386.85;101.82;;;;;;;-1.58;77.65;100205.19;339634;29;1448;-69
2021/12/24 00:00:18;;;;;;;386.77;100.72;;;;;;;-1.56;77.32;100210.38;339795;29;1669;-69
2021/12/24 00:00:28;;;;;;;387.08;100.47;;;;;;;-1.57;77.42;100209.50;340448;29;2069;-69
2021/12/24 00:00:40;;;;;;;387.53;101.80;;;;;;;-1.56;77.39;100207.78;337675;29;1949;-69
2021/12/24 00:00:50;;;;;;;388.00;101.85;;;;;;;-1.55;77.11;100209.53;339765;29;857;-69
2021/12/24 00:01:02;;;;;;;387.47;101.50;;;;;;;-1.56;77.01;100213.78;339657;29;2404;-69
2021/12/24 00:01:16;;;;;;;386.75;101.25;;;;;;;-1.56;77.13;100203.53;339740;29;2134;-69
2021/12/24 00:01:26;;;;;;;385.02;99.75;;;;;;;-1.57;76.98;100212.06;338355;29;1531;-69
2021/12/24 00:01:37;;;;;;;386.47;99.70;;;;;;;-1.56;77.30;100210.38;339887;29;1889;-69
2021/12/24 00:01:47;;;;;;;385.40;99.75;;;;;;;-1.58;77.21;100210.34;341021;29;952;-69
2021/12/24 00:01:58;;;;;;;385.87;101.43;;;;;;;-1.57;77.80;100208.63;340511;29;1950;-69
2021/12/24 00:02:08;;;;;;;386.50;101.22;;;;;;;-1.58;77.60;100212.91;340881;29;2083;-69
2021/12/24 00:02:18;;;;;;;387.07;100.47;;;;;;;-1.58;77.40;100212.03;337114;29;1013;-69
2021/12/24 00:02:29;;;;;;;387.77;99.23;;;;;;;-1.57;77.60;100212.06;339762;29;956;-69
2021/12/24 00:02:39;;;;;;;385.37;99.77;;;;;;;-1.58;77.54;100220.59;339706;29;2090;-69
2021/12/24 00:02:50;;;;;;;385.40;100.27;;;;;;;-1.57;77.71;100211.19;339815;29;1011;-69
2021/12/24 00:03:00;;;;;;;384.25;100.60;;;;;;;-1.57;77.15;100208.63;340632;29;1846;-69
2021/12/24 00:03:11;;;;;;;385.90;101.30;;;;;;;-1.58;77.71;100219.72;339951;28;1335;-69
2021/12/24 00:03:21;;;;;;;384.10;100.88;;;;;;;-1.60;77.36;100211.16;338901;28;1472;-69
2021/12/24 00:03:31;;;;;;;386.58;102.10;;;;;;;-1.59;76.98;100207.75;339263;29;877;-69
2021/12/24 00:03:42;;;;;;;387.07;102.30;;;;;;;-1.59;77.18;100212.88;340605;28;1736;-69
2021/12/24 00:03:52;;;;;;;387.33;101.85;;;;;;;-1.59;77.54;100210.31;338234;29;1844;-69
2021/12/24 00:04:03;;;;;;;386.43;101.73;;;;;;;-1.61;77.36;100209.41;341996;28;1083;-69
2021/12/24 00:04:13;;;;;;;384.83;101.35;;;;;;;-1.61;77.47;100211.97;339678;29;1420;-69
2021/12/24 00:04:24;;;;;;;386.17;101.97;;;;;;;-1.60;77.21;100208.56;340709;29;1958;-69
2021/12/24 00:04:35;;;;;;;383.77;99.70;;;;;;;-1.59;77.20;100218.00;338467;29;1589;-69
2021/12/24 00:04:45;;;;;;;385.67;100.38;;;;;;;-1.60;77.34;100206.00;338387;29;2469;-69
2021/12/24 00:04:55;;;;;;;386.37;101.13;;;;;;;-1.58;77.10;100209.47;339893;29;869;-69
2021/12/24 00:05:06;;;;;;;385.85;101.95;;;;;;;-1.60;76.90;100206.00;339664;29;2097;-69
2021/12/24 00:05:17;;;;;;;385.00;102.55;;;;;;;-1.58;76.98;100207.78;342506;28;900;-69
2021/12/24 00:05:27;;;;;;;387.37;103.33;;;;;;;-1.58;77.07;100202.63;340961;28;2107;-69
2021/12/24 00:05:37;;;;;;;387.20;103.88;;;;;;;-1.58;76.90;100200.06;341227;28;1739;-69
2021/12/24 00:05:48;;;;;;;385.43;103.77;;;;;;;-1.57;76.75;100211.19;339707;29;1462;-69
2021/12/24 00:05:58;;;;;;;385.23;102.63;;;;;;;-1.58;76.60;100196.63;339685;29;1764;-69
2021/12/24 00:06:09;;;;;;;387.27;103.20;;;;;;;-1.56;76.75;100205.22;339231;29;1892;-69
2021/12/24 00:06:19;;;;;;;389.55;103.95;;;;;;;-1.58;76.72;100206.91;340420;29;1807;-69
2021/12/24 00:06:30;;;;;;;390.37;104.43;;;;;;;-1.59;76.66;100197.47;339722;29;2088;-69
2021/12/24 00:06:40;;;;;;;392.35;103.45;;;;;;;-1.59;76.98;100208.59;339809;29;857;-69
2021/12/24 00:06:51;;;;;;;394.40;103.70;;;;;;;-1.58;76.73;100209.47;339716;29;905;-69
2021/12/24 00:07:01;;;;;;;397.88;103.70;;;;;;;-1.58;76.96;100204.34;338468;29;2096;-69
2021/12/24 00:07:11;;;;;;;398.07;104.87;;;;;;;-1.60;76.46;100206.00;338438;29;2066;-69
2021/12/24 00:07:22;;;;;;;397.92;105.88;;;;;;;-1.59;76.46;100203.47;339549;29;1807;-69
2021/12/24 00:07:32;;;;;;;392.90;105.13;;;;;;;-1.59;76.97;100210.31;341118;28;1442;-69
2021/12/24 00:07:43;;;;;;;390.52;104.90;;;;;;;-1.60;76.94;100206.00;339705;29;2000;-69
2021/12/24 00:07:53;;;;;;;390.83;104.67;;;;;;;-1.58;76.79;100204.34;339624;29;1853;-69
2021/12/24 00:08:04;;;;;;;391.60;104.63;;;;;;;-1.60;76.91;100203.44;342365;28;1357;-69
2021/12/24 00:08:14;;;;;;;391.88;104.38;;;;;;;-1.59;77.17;100212.88;338539;28;1614;-69
2021/12/24 00:08:25;;;;;;;388.27;102.57;;;;;;;-1.59;76.38;100207.75;336274;29;1454;-70
2021/12/24 00:08:35;;;;;;;390.20;103.20;;;;;;;-1.59;76.24;100205.19;338517;29;1544;-70
2021/12/24 00:08:47;;;;;;;391.60;102.93;;;;;;;-1.57;77.15;100206.06;336943;29;2190;-70
2021/12/24 00:08:57;;;;;;;396.15;103.72;;;;;;;-1.57;76.59;100209.50;336362;29;1544;-70
2021/12/24 00:09:08;;;;;;;399.13;103.97;;;;;;;-1.57;76.52;100203.50;338391;29;929;-69
2021/12/24 00:09:23;;;;;;;395.27;102.43;;;;;;;-1.58;76.36;100205.19;342456;28;1354;-69
2021/12/24 00:09:36;;;;;;;393.27;101.75;;;;;;;-1.58;76.45;100205.19;339883;29;997;-69
2021/12/24 00:09:46;;;;;;;394.05;103.28;;;;;;;-1.58;76.24;100199.22;342313;28;1977;-69
2021/12/24 00:09:56;;;;;;;392.13;102.07;;;;;;;-1.59;76.68;100205.19;341619;28;1305;-69
2021/12/24 00:10:08;;;;;;;393.73;102.97;;;;;;;-1.60;76.82;100206.00;342289;28;1016;-69
2021/12/24 00:10:18;;;;;;;389.58;102.13;;;;;;;-1.62;76.50;100202.56;341196;29;917;-69
2021/12/24 00:10:31;;;;;;;390.53;101.60;;;;;;;-1.62;76.91;100208.56;342130;28;2078;-69
2021/12/24 00:10:43;;;;;;;392.55;102.22;;;;;;;-1.62;76.81;100203.41;342254;28;903;-69
2021/12/24 00:11:01;;;;;;;393.80;101.80;;;;;;;-1.62;76.87;100212.81;339594;29;1557;-69
2021/12/24 00:11:11;;;;;;;394.27;101.32;;;;;;;-1.60;76.61;100213.72;339697;29;1239;-69
2021/12/24 00:11:22;;;;;;;396.00;102.65;;;;;;;-1.62;77.03;100207.69;339818;29;1708;-69
2021/12/24 00:11:33;;;;;;;395.17;103.10;;;;;;;-1.60;76.77;100216.28;340970;28;1381;-69
2021/12/24 00:11:43;;;;;;;392.30;102.30;;;;;;;-1.61;76.25;100214.53;340938;29;1795;-69
2021/12/24 00:12:00;;;;;;;387.45;100.72;;;;;;;-1.62;76.77;100212.81;338367;29;2004;-69
2021/12/24 00:12:18;;;;;;;389.84;103.24;;;;;;;-1.63;76.73;100206.81;336938;29;897;-69
2021/12/24 00:12:32;;;;;;;389.88;103.28;;;;;;;-1.64;76.99;100206.78;337005;29;2228;-69
2021/12/24 00:12:54;;;;;;;391.17;102.32;;;;;;;-1.67;76.90;100211.03;340480;29;991;-69
2021/12/24 00:13:09;;;;;;;389.85;101.43;;;;;;;-1.70;76.65;100208.41;339756;29;953;-69
2021/12/24 00:13:20;;;;;;;387.65;102.40;;;;;;;-1.69;77.12;100211.84;335146;29;985;-70
2021/12/24 00:13:38;;;;;;;391.80;103.33;;;;;;;-1.69;77.35;100205.00;337517;29;1448;-70
2021/12/24 00:13:50;;;;;;;390.85;102.45;;;;;;;-1.69;77.03;100207.56;338463;29;976;-70
2021/12/24 00:14:03;;;;;;;384.83;102.03;;;;;;;-1.68;76.93;100204.16;341967;28;1880;-70
2021/12/24 00:14:14;;;;;;;386.30;102.60;;;;;;;-1.66;77.00;100204.19;340752;28;2035;-70
2021/12/24 00:14:26;;;;;;;392.25;102.28;;;;;;;-1.64;76.58;100209.34;339522;28;1422;-70
2021/12/24 00:14:41;;;;;;;393.35;100.97;;;;;;;-1.64;77.02;100205.09;339852;29;1581;-70
2021/12/24 00:14:56;;;;;;;391.33;102.88;;;;;;;-1.62;76.81;100210.25;342188;28;1153;-70
2021/12/24 00:15:23;;;;;;;391.23;103.55;;;;;;;-1.61;77.00;100205.16;341219;29;842;-70
2021/12/24 00:16:24;;;;;;;396.88;102.88;;;;;;;-1.66;76.67;100209.31;339425;29;1074;-70
2021/12/24 00:16:41;;;;;;;396.85;102.90;;;;;;;-1.65;77.45;100213.63;339658;29;1266;-70
2021/12/24 00:16:55;;;;;;;396.60;104.28;;;;;;;-1.67;77.10;100213.59;340974;28;1304;-70
2021/12/24 00:17:05;;;;;;;393.85;103.43;;;;;;;-1.70;77.15;100213.53;343646;28;1513;-70
2021/12/24 00:17:20;;;;;;;392.48;102.63;;;;;;;-1.71;76.97;100208.38;340856;29;1773;-70
2021/12/24 00:17:34;;;;;;;393.20;103.22;;;;;;;-1.72;77.33;100212.66;340913;29;2055;-70
2021/12/24 00:17:44;;;;;;;393.15;103.65;;;;;;;-1.72;77.44;100210.09;342145;28;1417;-70
2021/12/24 00:18:03;;;;;;;391.87;104.00;;;;;;;-1.73;77.18;100210.91;341929;28;1283;-70
2021/12/24 00:19:15;;;;;;;395.42;104.72;;;;;;;-1.74;77.15;100206.66;343540;28;1160;-69
2021/12/24 00:19:46;;;;;;;397.75;106.38;;;;;;;-1.73;77.57;100204.91;343377;28;1155;-69
2021/12/24 00:20:23;;;;;;;399.25;104.43;;;;;;;-1.72;77.58;100207.53;343440;28;1595;-69
2021/12/24 00:21:41;;;;;;;395.63;104.72;;;;;;;-1.73;77.57;100213.47;339468;29;2316;-69
2021/12/24 00:35:10;;;;;;;396.83;101.40;;;;;;;-1.87;78.40;100197.00;342132;28;1582;-70
2021/12/24 00:35:35;;;;;;;399.73;103.70;;;;;;;-1.84;78.45;100204.75;340887;29;881;-70
2021/12/24 00:35:45;;;;;;;395.08;104.05;;;;;;;-1.81;79.06;100209.06;337088;29;1150;-70
2021/12/24 00:35:55;;;;;;;389.80;104.70;;;;;;;-1.79;78.57;100210.84;338289;29;885;-70
2021/12/24 00:36:06;;;;;;;391.53;105.10;;;;;;;-1.78;78.85;100212.56;339579;29;1696;-70
2021/12/24 00:36:16;;;;;;;391.75;105.00;;;;;;;-1.78;78.23;100210.00;339457;29;1099;-70
2021/12/24 00:36:27;;;;;;;390.33;102.53;;;;;;;-1.77;78.29;100213.44;339678;29;940;-70
2021/12/24 00:36:37;;;;;;;389.13;100.63;;;;;;;-1.78;78.30;100216.84;339652;29;2128;-70
2021/12/24 00:36:47;;;;;;;392.93;100.10;;;;;;;-1.77;78.52;100213.44;338254;29;1728;-69
2021/12/24 00:36:58;;;;;;;396.02;100.55;;;;;;;-1.78;78.79;100216.84;336950;29;1656;-70
2021/12/24 00:37:08;;;;;;;397.77;101.40;;;;;;;-1.79;78.69;100210.84;338376;29;1342;-70
2021/12/24 00:37:21;;;;;;;395.88;102.13;;;;;;;-1.78;78.38;100220.25;338933;29;1526;-70
2021/12/24 00:37:32;;;;;;;392.20;102.47;;;;;;;-1.78;78.33;100212.56;342266;28;1957;-70
2021/12/24 00:37:44;;;;;;;393.17;102.60;;;;;;;-1.77;78.76;100216.88;340913;29;873;-70
2021/12/24 00:37:55;;;;;;;393.38;103.13;;;;;;;-1.77;78.79;100213.44;341141;28;1110;-70
2021/12/24 00:38:08;;;;;;;389.60;101.97;;;;;;;-1.76;78.51;100215.16;340216;29;1064;-70
2021/12/24 00:38:18;;;;;;;392.70;103.55;;;;;;;-1.78;78.33;100216.84;338267;28;1504;-70
2021/12/24 00:38:28;;;;;;;394.77;106.40;;;;;;;-1.77;78.28;100216.88;341381;28;1534;-70
2021/12/24 00:38:39;;;;;;;397.48;106.72;;;;;;;-1.79;78.09;100209.97;339625;28;1303;-70
2021/12/24 00:38:51;;;;;;;395.33;106.43;;;;;;;-1.80;78.24;100214.25;337538;29;1373;-71
2021/12/24 00:39:01;;;;;;;395.45;104.15;;;;;;;-1.79;78.50;100215.97;340208;29;1480;-71
2021/12/24 00:39:11;;;;;;;398.83;105.22;;;;;;;-1.79;78.53;100210.84;342248;28;833;-70
2021/12/24 00:39:22;;;;;;;399.17;104.37;;;;;;;-1.77;78.51;100214.28;342024;28;2239;-70
2021/12/24 00:39:36;;;;;;;401.37;104.93;;;;;;;-1.79;78.34;100213.41;342049;28;1558;-70
2021/12/24 00:40:20;;;;;;;401.17;105.93;;;;;;;-1.79;78.26;100210.84;339424;29;1784;-71
2021/12/24 00:40:23;;;;;;;397.38;103.97;;;;;;;-1.82;78.55;100210.78;340228;29;1260;-70
2021/12/24 00:40:44;;;;;;;400.57;104.83;;;;;;;-1.82;78.31;100221.03;338061;28;1780;-70
2021/12/24 00:40:55;;;;;;;398.00;104.07;;;;;;;-1.83;78.19;100214.19;338318;29;908;-70
2021/12/24 00:41:05;;;;;;;394.77;102.85;;;;;;;-1.82;78.39;100215.91;339166;29;1373;-70
2021/12/24 00:41:16;;;;;;;392.17;100.95;;;;;;;-1.82;78.32;100223.59;340759;29;1933;-70
2021/12/24 00:41:26;;;;;;;397.20;102.20;;;;;;;-1.82;78.89;100217.59;340966;29;889;-70
2021/12/24 00:41:37;;;;;;;399.25;102.88;;;;;;;-1.83;78.33;100214.19;339360;29;1956;-70
2021/12/24 00:41:47;;;;;;;397.93;102.40;;;;;;;-1.83;78.28;100214.19;339416;29;1285;-70
2021/12/24 00:41:57;;;;;;;394.95;101.93;;;;;;;-1.81;78.33;100219.34;338435;29;890;-70
2021/12/24 00:42:08;;;;;;;395.07;100.87;;;;;;;-1.82;78.46;100218.47;340745;29;1025;-70
2021/12/24 00:42:18;;;;;;;397.52;103.47;;;;;;;-1.83;78.99;100209.06;340739;29;1971;-70
2021/12/24 00:42:29;;;;;;;397.77;104.63;;;;;;;-1.82;78.74;100217.59;339514;29;2132;-70
2021/12/24 00:42:43;;;;;;;398.23;106.38;;;;;;;-1.83;78.69;100214.19;339507;29;914;-70
2021/12/24 00:42:55;;;;;;;401.52;106.43;;;;;;;-1.84;78.15;100217.59;339112;29;1527;-71
2021/12/24 00:43:05;;;;;;;398.85;104.65;;;;;;;-1.83;78.53;100210.75;339247;29;932;-71
2021/12/24 00:43:16;;;;;;;397.17;104.28;;;;;;;-1.84;78.50;100209.03;337927;29;1213;-70
2021/12/24 00:43:26;;;;;;;395.42;104.78;;;;;;;-1.82;78.64;100215.03;339773;28;1416;-70
2021/12/24 00:43:37;;;;;;;395.53;106.13;;;;;;;-1.83;78.96;100211.63;342029;28;1827;-70
2021/12/24 00:43:47;;;;;;;393.02;103.95;;;;;;;-1.84;78.77;100212.44;339991;29;1518;-70
2021/12/24 00:43:58;;;;;;;393.03;102.80;;;;;;;-1.84;78.83;100212.44;339639;29;1307;-71
2021/12/24 00:44:08;;;;;;;392.83;103.75;;;;;;;-1.86;78.72;100203.88;339512;29;877;-70
2021/12/24 00:44:19;;;;;;;395.03;104.63;;;;;;;-1.85;78.58;100215.84;340809;29;1789;-70
2021/12/24 00:44:29;;;;;;;393.98;105.32;;;;;;;-1.86;78.92;100208.13;339508;29;1440;-70
2021/12/24 00:44:39;;;;;;;395.37;105.23;;;;;;;-1.86;78.83;100203.88;338279;29;1299;-70
2021/12/24 00:44:50;;;;;;;394.65;104.55;;;;;;;-1.85;78.94;100213.28;340789;29;2080;-70
2021/12/24 00:45:00;;;;;;;396.53;104.90;;;;;;;-1.86;78.80;100209.00;340836;29;1882;-71
2021/12/24 00:45:15;;;;;;;396.27;105.78;;;;;;;-1.85;78.68;100208.16;340935;29;933;-71
2021/12/24 00:45:27;;;;;;;397.33;107.25;;;;;;;-1.85;78.80;100210.72;339606;29;992;-71
2021/12/24 00:45:42;;;;;;;402.60;106.63;;;;;;;-1.86;78.63;100203.88;339278;29;1581;-71
2021/12/24 00:45:53;;;;;;;401.15;104.97;;;;;;;-1.86;78.48;100203.88;338218;29;1031;-71
2021/12/24 00:46:03;;;;;;;397.48;105.60;;;;;;;-1.86;79.03;100198.72;340157;29;1405;-71
2021/12/24 00:46:14;;;;;;;394.13;104.30;;;;;;;-1.87;78.86;100206.41;340543;29;1259;-71
2021/12/24 00:46:24;;;;;;;395.60;105.15;;;;;;;-1.86;78.88;100197.88;340770;29;1218;-71
2021/12/24 00:46:34;;;;;;;398.97;106.27;;;;;;;-1.85;78.82;100203.03;339473;29;1779;-71
2021/12/24 00:46:45;;;;;;;400.65;107.38;;;;;;;-1.85;79.21;100197.03;338156;29;1751;-71
2021/12/24 00:46:55;;;;;;;399.50;107.83;;;;;;;-1.84;78.85;100201.31;336935;29;1301;-71
2021/12/24 00:47:06;;;;;;;399.02;105.53;;;;;;;-1.86;78.90;100203.88;337756;29;2354;-70
2021/12/24 00:47:16;;;;;;;402.70;105.57;;;;;;;-1.86;79.23;100198.72;338067;29;1321;-71
2021/12/24 00:47:27;;;;;;;401.15;104.53;;;;;;;-1.85;78.71;100204.72;340925;29;826;-71
2021/12/24 00:47:37;;;;;;;400.00;105.73;;;;;;;-1.87;78.62;100194.44;341020;28;1730;-71
2021/12/24 00:47:48;;;;;;;398.50;106.60;;;;;;;-1.87;78.99;100197.00;339666;29;1428;-71
2021/12/24 00:47:59;;;;;;;395.58;104.85;;;;;;;-1.88;78.98;100194.41;339742;29;942;-71
2021/12/24 00:48:11;;;;;;;395.58;103.70;;;;;;;-1.89;78.86;100197.81;340812;28;1465;-71
2021/12/24 00:48:22;;;;;;;399.17;104.35;;;;;;;-1.90;79.24;100196.94;337864;28;1372;-71
2021/12/24 00:48:32;;;;;;;403.60;105.78;;;;;;;-1.89;79.19;100195.25;339428;28;2139;-70
2021/12/24 00:48:43;;;;;;;405.08;105.75;;;;;;;-1.88;79.12;100189.28;340767;29;973;-70
2021/12/24 00:48:55;;;;;;;401.97;104.60;;;;;;;-1.91;78.63;100187.53;338093;29;2008;-70
2021/12/24 00:49:05;;;;;;;398.27;102.75;;;;;;;-1.90;79.25;100188.38;338376;29;834;-71
2021/12/24 00:49:16;;;;;;;398.27;101.97;;;;;;;-1.91;79.01;100190.09;340768;29;2044;-71
2021/12/24 00:49:26;;;;;;;400.63;102.70;;;;;;;-1.90;79.04;100186.69;339517;29;1047;-71
2021/12/24 00:49:37;;;;;;;398.30;105.30;;;;;;;-1.91;79.29;100184.97;340772;29;1224;-71
2021/12/24 00:49:47;;;;;;;397.90;106.77;;;;;;;-1.92;78.96;100188.34;339618;28;1508;-71
2021/12/24 00:49:58;;;;;;;396.07;104.73;;;;;;;-1.91;79.01;100189.22;338269;29;893;-71
2021/12/24 00:50:12;;;;;;;397.63;103.07;;;;;;;-1.91;78.98;100186.66;339474;29;873;-71
2021/12/24 00:50:26;;;;;;;396.10;103.15;;;;;;;-1.92;79.32;100183.22;338084;29;1881;-71
2021/12/24 00:51:22;;;;;;;396.92;103.57;;;;;;;-1.89;79.06;100188.41;341852;28;1380;-70
2021/12/24 00:52:18;;;;;;;399.30;105.60;;;;;;;-1.90;79.19;100185.81;339439;29;1274;-70
2021/12/24 00:52:46;;;;;;;397.20;104.65;;;;;;;-1.88;79.33;100179.88;342190;28;978;-70
2021/12/24 00:53:02;;;;;;;398.15;105.20;;;;;;;-1.88;79.46;100179.88;340770;28;1529;-70
2021/12/24 00:55:05;;;;;;;406.70;105.28;;;;;;;-1.88;79.24;100185.00;339300;29;1256;-70
2021/12/24 00:55:17;;;;;;;402.42;104.10;;;;;;;-1.88;79.46;100182.44;339524;29;1979;-70
2021/12/24 00:55:28;;;;;;;398.60;103.18;;;;;;;-1.88;79.34;100177.31;339698;29;929;-70
2021/12/24 00:55:38;;;;;;;398.20;103.55;;;;;;;-1.87;79.38;100180.75;340561;29;1948;-70
2021/12/24 00:55:49;;;;;;;399.53;104.47;;;;;;;-1.88;79.46;100174.75;339259;29;1300;-70
2021/12/24 00:56:13;;;;;;;403.13;105.40;;;;;;;-1.88;79.12;100179.88;336924;29;965;-70
2021/12/24 00:56:24;;;;;;;398.70;104.88;;;;;;;-1.86;79.24;100173.09;339399;29;1309;-70
2021/12/24 00:56:34;;;;;;;394.53;104.13;;;;;;;-1.86;79.32;100180.78;339604;29;2112;-70
2021/12/24 00:56:45;;;;;;;395.77;104.00;;;;;;;-1.86;79.21;100178.22;340866;29;1219;-70
2021/12/24 00:56:55;;;;;;;397.70;104.17;;;;;;;-1.85;79.28;100179.94;340557;29;1572;-70
2021/12/24 00:57:05;;;;;;;400.10;104.13;;;;;;;-1.85;78.99;100174.81;342873;28;1941;-70
2021/12/24 00:57:16;;;;;;;399.35;103.85;;;;;;;-1.85;79.03;100176.50;343462;28;2027;-70
2021/12/24 00:57:26;;;;;;;397.87;104.27;;;;;;;-1.86;79.20;100175.66;344888;28;912;-70
2021/12/24 00:57:38;;;;;;;395.35;104.03;;;;;;;-1.86;78.84;100175.66;342151;28;2006;-70
2021/12/24 00:57:51;;;;;;;398.08;104.57;;;;;;;-1.86;79.11;100173.09;342012;28;2247;-70
2021/12/24 00:58:03;;;;;;;400.55;104.85;;;;;;;-1.85;78.86;100168.81;339375;29;1876;-70
2021/12/24 00:58:14;;;;;;;397.48;103.30;;;;;;;-1.86;78.85;100170.53;337165;29;957;-71
2021/12/24 00:58:24;;;;;;;398.70;103.75;;;;;;;-1.85;79.07;100174.81;337531;28;2167;-70
2021/12/24 00:58:35;;;;;;;395.10;103.70;;;;;;;-1.84;78.82;100173.97;340625;29;1330;-70
2021/12/24 00:58:47;;;;;;;394.65;104.70;;;;;;;-1.86;79.36;100170.53;340843;29;879;-70
2021/12/24 00:58:57;;;;;;;394.40;106.32;;;;;;;-1.85;79.03;100176.50;336964;29;941;-70
2021/12/24 00:59:07;;;;;;;399.52;108.30;;;;;;;-1.85;78.90;100172.25;338991;29;1135;-70
2021/12/24 00:59:18;;;;;;;400.30;107.23;;;;;;;-1.86;79.15;100173.09;339249;29;1930;-70
2021/12/24 00:59:28;;;;;;;402.35;104.40;;;;;;;-1.87;79.58;100175.63;339636;29;957;-70
2021/12/24 00:59:39;;;;;;;398.23;104.10;;;;;;;-1.88;79.67;100174.75;338951;29;1269;-70
2021/12/24 00:59:49;;;;;;;401.05;104.50;;;;;;;-1.88;79.36;100174.75;338075;29;1771;-70
2021/12/24 00:59:59;;;;;;;400.07;104.83;;;;;;;-1.88;79.20;100179.03;339497;29;1304;-70
2021/12/24 01:00:12;;;;;;;403.60;105.87;;;;;;;-1.88;79.05;100174.75;339491;28;1301;-70
2021/12/24 01:00:24;;;;;;;403.83;106.60;;;;;;;-1.88;79.30;100177.31;339423;28;1543;-70
2021/12/24 01:00:37;;;;;;;402.45;105.55;;;;;;;-1.90;79.40;100176.44;339883;29;2171;-70
2021/12/24 01:00:47;;;;;;;400.65;104.72;;;;;;;-1.90;79.20;100179.00;341894;28;1695;-70
2021/12/24 01:00:58;;;;;;;399.65;105.82;;;;;;;-1.90;79.91;100173.88;340838;28;1292;-70
2021/12/24 01:01:10;;;;;;;399.53;105.83;;;;;;;-1.90;79.35;100176.44;339257;29;1197;-70
2021/12/24 01:01:20;;;;;;;402.15;107.10;;;;;;;-1.91;79.62;100179.84;336839;29;1668;-70
2021/12/24 01:01:31;;;;;;;402.20;106.97;;;;;;;-1.90;79.49;100180.69;337011;29;1630;-70
2021/12/24 01:01:41;;;;;;;401.65;107.82;;;;;;;-1.92;79.69;100175.53;340856;29;1404;-70
2021/12/24 01:01:51;;;;;;;400.57;106.87;;;;;;;-1.90;79.63;100181.56;340667;29;1489;-70
2021/12/24 01:02:04;;;;;;;399.80;106.87;;;;;;;-1.93;79.98;100181.50;340568;28;1351;-70
2021/12/24 01:02:14;;;;;;;400.08;106.28;;;;;;;-1.93;79.90;100176.38;339387;29;1160;-70
2021/12/24 01:02:24;;;;;;;400.07;108.10;;;;;;;-1.93;79.69;100178.94;337962;29;1333;-70
2021/12/24 01:02:35;;;;;;;404.60;107.53;;;;;;;-1.94;79.69;100169.50;337810;29;889;-70
2021/12/24 01:02:46;;;;;;;405.90;108.33;;;;;;;-1.94;79.15;100174.66;339650;29;1194;-70
2021/12/24 01:02:57;;;;;;;403.73;105.97;;;;;;;-1.94;79.88;100172.06;339952;29;1032;-71
2021/12/24 01:03:12;;;;;;;404.60;106.38;;;;;;;-1.94;79.66;100172.06;341133;28;2101;-70
2021/12/24 01:03:22;;;;;;;406.77;107.90;;;;;;;-1.95;79.57;100167.78;335683;28;1497;-70
2021/12/24 01:03:33;;;;;;;406.30;107.63;;;;;;;-1.96;79.47;100168.63;337473;29;994;-70
2021/12/24 01:03:43;;;;;;;407.20;107.73;;;;;;;-1.95;79.75;100172.06;340944;29;888;-70
2021/12/24 01:03:53;;;;;;;407.80;106.32;;;;;;;-1.97;79.13;100174.59;340952;29;2005;-70
2021/12/24 01:04:04;;;;;;;405.60;107.07;;;;;;;-1.98;79.29;100161.75;338330;29;1797;-70
2021/12/24 01:04:14;;;;;;;405.60;105.57;;;;;;;-1.97;79.62;100169.47;338377;29;897;-70
2021/12/24 01:04:24;;;;;;;404.37;105.33;;;;;;;-1.97;79.75;100169.47;339739;29;1194;-70
2021/12/24 01:04:35;;;;;;;404.73;104.72;;;;;;;-1.98;78.81;100170.28;342681;28;1465;-70
2021/12/24 01:04:45;;;;;;;401.93;106.23;;;;;;;-2.00;79.05;100164.28;339579;28;1185;-70
2021/12/24 01:04:55;;;;;;;402.58;105.85;;;;;;;-2.03;78.93;100161.66;341004;29;1236;-70
2021/12/24 01:05:06;;;;;;;404.90;104.90;;;;;;;-2.02;79.14;100163.38;340962;29;2015;-70
2021/12/24 01:05:17;;;;;;;408.85;105.30;;;;;;;-2.06;78.75;100165.03;339873;29;2137;-70
2021/12/24 01:05:28;;;;;;;410.63;107.07;;;;;;;-2.06;79.01;100165.03;338529;29;1434;-70
2021/12/24 01:05:39;;;;;;;405.25;106.22;;;;;;;-2.07;78.58;100162.44;338382;29;981;-70
2021/12/24 01:05:49;;;;;;;401.88;105.75;;;;;;;-2.09;79.12;100158.97;339606;29;2080;-70
2021/12/24 01:06:00;;;;;;;402.27;105.53;;;;;;;-2.09;78.93;100161.53;339672;28;1448;-70
2021/12/24 01:06:10;;;;;;;406.58;106.93;;;;;;;-2.09;78.74;100161.53;342101;28;1776;-70
2021/12/24 01:06:21;;;;;;;405.20;108.67;;;;;;;-2.10;78.60;100155.53;340875;28;1862;-70
2021/12/24 01:06:31;;;;;;;404.70;107.97;;;;;;;-2.10;78.80;100162.38;339544;29;1328;-70
2021/12/24 01:06:41;;;;;;;405.33;106.80;;;;;;;-2.11;78.83;100158.94;339731;29;1457;-70
2021/12/24 01:06:52;;;;;;;405.83;103.85;;;;;;;-2.10;78.88;100157.25;340850;29;1499;-70
2021/12/24 01:07:03;;;;;;;406.43;105.43;;;;;;;-2.09;78.28;100156.41;340948;29;1899;-70
2021/12/24 01:07:13;;;;;;;406.83;107.73;;;;;;;-2.09;78.75;100158.97;341035;28;1486;-70
2021/12/24 01:07:23;;;;;;;407.48;108.25;;;;;;;-2.06;78.42;100161.59;338314;29;1544;-70
2021/12/24 01:07:34;;;;;;;407.57;109.77;;;;;;;-2.07;78.88;100158.16;338354;29;1595;-70
2021/12/24 01:07:45;;;;;;;405.77;108.88;;;;;;;-2.07;78.75;100153.03;342502;28;833;-70
2021/12/24 01:07:55;;;;;;;402.83;108.25;;;;;;;-2.09;78.44;100159.84;341159;28;1778;-70
2021/12/24 01:08:06;;;;;;;399.93;106.80;;;;;;;-2.09;78.33;100164.09;340536;29;1660;-70
2021/12/24 01:08:16;;;;;;;403.02;107.50;;;;;;;-2.11;78.11;100158.94;338137;29;1272;-70
2021/12/24 01:08:27;;;;;;;406.13;107.88;;;;;;;-2.11;78.48;100156.38;338487;29;965;-70
2021/12/24 01:08:37;;;;;;;407.57;107.03;;;;;;;-2.12;78.60;100154.66;338171;29;1864;-70
2021/12/24 01:08:48;;;;;;;402.35;106.22;;;;;;;-2.11;78.25;100160.63;338351;29;2122;-71
2021/12/24 01:08:58;;;;;;;400.20;105.87;;;;;;;-2.10;78.25;100160.66;339938;29;857;-70
2021/12/24 01:09:08;;;;;;;397.35;107.03;;;;;;;-2.10;78.62;100152.13;338359;29;2088;-71
2021/12/24 01:09:20;;;;;;;400.03;106.67;;;;;;;-2.10;78.30;100149.56;338403;29;1000;-71
2021/12/24 01:09:30;;;;;;;401.35;108.20;;;;;;;-2.10;78.62;100147.84;339712;29;1313;-71
2021/12/24 01:09:41;;;;;;;401.33;107.63;;;;;;;-2.09;77.98;100143.59;337016;29;2211;-70
2021/12/24 01:09:51;;;;;;;399.85;105.88;;;;;;;-2.09;78.13;100141.03;339704;29;2077;-70
2021/12/24 01:10:02;;;;;;;402.30;106.87;;;;;;;-2.08;78.41;100140.19;339610;29;1486;-70
2021/12/24 01:10:15;;;;;;;403.65;108.38;;;;;;;-2.09;78.41;100143.59;339667;29;1021;-70
2021/12/24 01:10:28;;;;;;;408.20;109.82;;;;;;;-2.12;78.61;100143.53;342165;28;1436;-70
2021/12/24 01:10:45;;;;;;;407.10;107.95;;;;;;;-2.12;78.44;100143.53;339453;29;1534;-70
2021/12/24 01:10:57;;;;;;;405.50;106.60;;;;;;;-2.13;78.04;100141.81;339582;29;1489;-70
2021/12/24 01:11:08;;;;;;;405.35;106.85;;;;;;;-2.13;78.78;100141.81;337516;29;2046;-70
2021/12/24 01:11:18;;;;;;;406.70;108.00;;;;;;;-2.12;78.61;100135.84;341819;28;1720;-70
2021/12/24 01:11:30;;;;;;;404.83;108.13;;;;;;;-2.12;78.23;100138.41;342502;28;868;-70
2021/12/24 01:11:40;;;;;;;405.95;108.60;;;;;;;-2.13;77.90;100137.53;342043;28;1959;-70
2021/12/24 01:11:51;;;;;;;402.77;108.17;;;;;;;-2.11;77.94;100129.88;339226;29;1302;-70
2021/12/24 01:12:01;;;;;;;401.52;107.57;;;;;;;-2.11;77.97;100140.13;337036;29;1036;-70
2021/12/24 01:12:12;;;;;;;405.80;107.97;;;;;;;-2.12;77.90;100133.28;339688;29;998;-70
2021/12/24 01:12:23;;;;;;;409.03;108.60;;;;;;;-2.10;78.08;100136.72;340752;29;1753;-70
2021/12/24 01:12:34;;;;;;;409.25;107.97;;;;;;;-2.12;77.84;100129.00;340937;29;2016;-70
2021/12/24 01:12:45;;;;;;;407.00;107.20;;;;;;;-2.11;78.08;100135.00;340973;29;1094;-70
2021/12/24 01:12:55;;;;;;;408.37;107.10;;;;;;;-2.10;77.84;100129.03;339596;29;1786;-70
2021/12/24 01:13:05;;;;;;;406.98;106.47;;;;;;;-2.10;77.78;100132.47;339402;29;1886;-70